createdAt,value
2019-03-30T00:02:12.443Z,22.35
2019-03-30T00:04:46.068Z,22.75
2019-03-30T00:07:19.737Z,22.10
2019-03-30T00:09:53.365Z,22.62
2019-03-30T00:12:26.991Z,20.43
2019-03-30T00:15:00.661Z,20.50
2019-03-30T00:17:35.043Z,22.02
2019-03-30T00:20:08.866Z,20.75
2019-03-30T00:22:42.505Z,21.75
2019-03-30T00:25:16.233Z,18.02
2019-03-30T00:27:49.908Z,18.45
2019-03-30T00:30:23.562Z,19.35
2019-03-30T00:32:57.040Z,19.67
2019-03-30T00:35:30.586Z,19.30
2019-03-30T00:38:04.097Z,19.17
2019-03-30T00:40:39.600Z,18.42
2019-03-30T00:43:32.503Z,19.67
2019-03-30T00:46:19.313Z,21.45
2019-03-30T00:49:10.075Z,19.62
2019-03-30T00:51:56.329Z,17.57
2019-03-30T00:54:44.317Z,18.40
2019-03-30T00:57:31.079Z,18.80
2019-03-30T01:00:18.298Z,18.95
2019-03-30T01:02:53.957Z,18.40
2019-03-30T01:05:29.418Z,19.42
2019-03-30T01:08:04.857Z,21.02
2019-03-30T01:10:40.365Z,21.55
2019-03-30T01:13:27.307Z,20.68
2019-03-30T01:16:21.200Z,20.70
2019-03-30T01:19:09.119Z,21.55
2019-03-30T01:21:45.718Z,23.65
2019-03-30T01:24:21.342Z,23.47
2019-03-30T01:27:08.367Z,22.98
2019-03-30T01:30:03.769Z,23.38
2019-03-30T01:32:39.365Z,26.12
2019-03-30T01:35:15.096Z,27.02
2019-03-30T01:37:50.294Z,25.80
2019-03-30T01:40:27.376Z,24.77
2019-03-30T01:43:14.457Z,22.02
2019-03-30T01:46:02.104Z,20.70
2019-03-30T01:48:50.605Z,18.98
2019-03-30T01:51:44.013Z,22.43
2019-03-30T01:54:31.357Z,32.88
2019-03-30T01:57:23.935Z,39.75
2019-03-30T02:00:12.661Z,38.23
2019-03-30T02:02:48.182Z,29.80
2019-03-30T02:05:41.126Z,30.85
2019-03-30T02:08:36.364Z,26.75
2019-03-30T02:11:14.096Z,25.15
2019-03-30T02:14:00.829Z,22.98
2019-03-30T02:16:47.809Z,21.17
2019-03-30T02:19:34.576Z,20.95
2019-03-30T02:22:08.165Z,24.35
2019-03-30T02:24:41.794Z,33.57
2019-03-30T02:27:15.466Z,21.90
2019-03-30T02:29:49.203Z,22.60
2019-03-30T02:32:22.792Z,24.18
2019-03-30T02:34:56.553Z,25.23
2019-03-30T02:37:30.168Z,23.10
2019-03-30T02:40:03.821Z,18.40
2019-03-30T02:42:37.449Z,19.65
2019-03-30T02:45:11.151Z,18.45
2019-03-30T02:47:44.905Z,21.10
2019-03-30T02:50:18.531Z,22.40
2019-03-30T02:52:52.451Z,19.82
2019-03-30T02:55:26.243Z,19.82
2019-03-30T02:57:59.924Z,18.52
2019-03-30T03:00:33.598Z,18.80
2019-03-30T03:03:07.402Z,19.07
2019-03-30T03:05:41.052Z,19.05
2019-03-30T03:08:14.823Z,19.60
2019-03-30T03:10:49.527Z,19.90
2019-03-30T03:13:23.171Z,22.03
2019-03-30T03:15:56.786Z,21.13
2019-03-30T03:18:30.397Z,22.57
2019-03-30T03:21:07.777Z,24.23
2019-03-30T03:23:39.360Z,23.83
2019-03-30T03:26:12.961Z,25.10
2019-03-30T03:28:46.641Z,25.93
2019-03-30T03:31:20.315Z,26.17
2019-03-30T03:33:53.881Z,29.57
2019-03-30T03:36:28.359Z,30.25
2019-03-30T03:39:02.030Z,32.23
2019-03-30T03:41:36.861Z,31.50
2019-03-30T03:44:10.511Z,28.80
2019-03-30T03:46:44.193Z,28.23
2019-03-30T03:49:17.872Z,29.60
2019-03-30T03:51:51.785Z,27.52
2019-03-30T03:54:25.627Z,29.67
2019-03-30T03:57:01.346Z,32.53
2019-03-30T03:59:37.464Z,29.63
2019-03-30T04:02:12.385Z,30.57
2019-03-30T04:04:47.930Z,30.10
2019-03-30T04:07:23.352Z,26.00
2019-03-30T04:10:00.907Z,25.33
2019-03-30T04:12:37.664Z,23.93
2019-03-30T04:15:14.982Z,21.47
2019-03-30T04:17:48.755Z,18.20
2019-03-30T04:20:25.346Z,19.10
2019-03-30T04:22:58.945Z,18.67
2019-03-30T04:25:32.563Z,20.50
2019-03-30T04:28:06.309Z,22.57
2019-03-30T04:30:40.031Z,26.03
2019-03-30T04:33:13.685Z,25.63
2019-03-30T04:35:47.402Z,22.70
2019-03-30T04:38:20.979Z,31.17
2019-03-30T04:40:54.640Z,35.25
2019-03-30T04:43:28.394Z,31.23
2019-03-30T04:46:02.066Z,29.75
2019-03-30T04:48:35.750Z,26.07
2019-03-30T04:51:09.374Z,25.60
2019-03-30T04:53:43.100Z,22.80
2019-03-30T04:56:16.697Z,25.57
2019-03-30T04:58:50.501Z,23.70
2019-03-30T05:01:24.474Z,23.87
2019-03-30T05:03:58.298Z,23.13
2019-03-30T05:06:31.996Z,21.87
2019-03-30T05:09:07.092Z,23.90
2019-03-30T05:11:40.827Z,25.17
2019-03-30T05:14:14.571Z,25.07
2019-03-30T05:16:48.307Z,27.17
2019-03-30T05:19:24.113Z,29.43
2019-03-30T05:22:11.121Z,29.20
2019-03-30T05:24:33.163Z,33.20
2019-03-30T05:27:06.872Z,36.20
2019-03-30T05:29:40.950Z,32.50
2019-03-30T05:32:14.713Z,32.97
2019-03-30T05:34:48.593Z,35.10
2019-03-30T05:37:22.205Z,34.60
2019-03-30T05:39:55.852Z,37.13
2019-03-30T05:42:29.584Z,36.77
2019-03-30T05:45:03.287Z,37.27
2019-03-30T05:47:36.908Z,36.10
2019-03-30T05:50:11.564Z,37.67
2019-03-30T05:52:45.282Z,36.90
2019-03-30T05:55:18.992Z,35.30
2019-03-30T05:57:52.613Z,36.10
2019-03-30T06:00:26.442Z,36.38
2019-03-30T06:03:02.894Z,34.80
2019-03-30T06:05:36.797Z,35.60
2019-03-30T06:08:10.484Z,33.77
2019-03-30T06:10:44.182Z,35.17
2019-03-30T06:13:17.866Z,33.50
2019-03-30T06:15:51.504Z,33.85
2019-03-30T06:18:25.164Z,34.60
2019-03-30T06:20:58.859Z,33.05
2019-03-30T06:23:32.602Z,30.53
2019-03-30T06:26:07.398Z,32.40
2019-03-30T06:28:41.136Z,33.55
2019-03-30T06:31:14.986Z,32.75
2019-03-30T06:33:48.753Z,33.50
2019-03-30T06:36:22.493Z,32.87
2019-03-30T06:38:56.134Z,32.33
2019-03-30T06:41:29.745Z,32.05
2019-03-30T06:44:03.425Z,32.17
2019-03-30T06:46:39.539Z,30.97
2019-03-30T06:49:12.739Z,30.95
2019-03-30T06:51:46.729Z,32.10
2019-03-30T06:54:20.389Z,32.85
2019-03-30T06:56:54.152Z,32.53
2019-03-30T06:59:27.832Z,34.85
2019-03-30T07:02:01.690Z,33.33
2019-03-30T07:04:35.331Z,33.45
2019-03-30T07:07:10.998Z,30.37
2019-03-30T07:09:48.324Z,31.45
2019-03-30T07:12:25.544Z,28.73
2019-03-30T07:15:02.178Z,28.62
2019-03-30T07:17:47.003Z,28.42
2019-03-30T07:20:31.495Z,27.82
2019-03-30T07:23:11.895Z,28.25
2019-03-30T07:25:41.076Z,27.98
2019-03-30T07:28:32.377Z,27.13
2019-03-30T07:31:23.839Z,26.40
2019-03-30T07:33:57.503Z,24.63
2019-03-30T07:36:31.376Z,24.27
2019-03-30T07:39:05.828Z,24.07
2019-03-30T07:41:42.308Z,21.15
2019-03-30T07:44:18.757Z,23.87
2019-03-30T07:46:53.038Z,25.35
2019-03-30T07:49:26.898Z,22.77
2019-03-30T07:52:00.880Z,22.80
2019-03-30T07:54:35.243Z,22.62
2019-03-30T07:57:16.902Z,21.10
2019-03-30T08:00:04.271Z,19.77
2019-03-30T08:02:56.328Z,20.95
2019-03-30T08:05:30.294Z,19.15
2019-03-30T08:08:04.630Z,18.10
2019-03-30T08:10:39.032Z,18.98
2019-03-30T08:13:13.158Z,11.97
2019-03-30T08:15:47.543Z,15.13
2019-03-30T08:18:21.499Z,20.15
2019-03-30T08:20:55.176Z,21.25
2019-03-30T08:23:39.736Z,24.60
2019-03-30T08:26:04.396Z,24.35
2019-03-30T08:28:38.105Z,23.67
2019-03-30T08:31:12.036Z,24.72
2019-03-30T08:33:45.825Z,31.02
2019-03-30T08:36:19.751Z,21.55
2019-03-30T08:38:53.394Z,24.47
2019-03-30T08:41:27.169Z,21.82
2019-03-30T08:44:00.900Z,20.72
2019-03-30T08:46:34.547Z,23.67
2019-03-30T08:49:09.456Z,18.12
2019-03-30T08:51:43.255Z,19.32
2019-03-30T08:54:16.998Z,17.73
2019-03-30T08:56:50.683Z,18.92
2019-03-30T08:59:24.438Z,19.42
2019-03-30T09:01:59.340Z,17.07
2019-03-30T09:04:33.025Z,18.85
2019-03-30T09:07:16.031Z,15.13
2019-03-30T09:09:49.802Z,16.42
2019-03-30T09:12:25.174Z,13.60
2019-03-30T09:14:59.043Z,12.82
2019-03-30T09:17:37.153Z,11.18
2019-03-30T09:20:15.100Z,15.40
2019-03-30T09:22:49.160Z,16.45
2019-03-30T09:25:22.774Z,14.05
2019-03-30T09:27:56.353Z,17.65
2019-03-30T09:30:30.950Z,17.05
2019-03-30T09:33:04.736Z,18.82
2019-03-30T09:35:38.450Z,17.82
2019-03-30T09:38:14.784Z,17.80
2019-03-30T09:40:47.771Z,13.93
2019-03-30T09:43:23.533Z,15.78
2019-03-30T09:45:57.497Z,18.57
2019-03-30T09:48:34.343Z,17.00
2019-03-30T09:51:12.142Z,15.50
2019-03-30T09:53:49.150Z,18.52
2019-03-30T09:56:24.094Z,16.73
2019-03-30T09:59:05.472Z,17.67
2019-03-30T10:01:39.201Z,17.48
2019-03-30T10:04:12.999Z,18.07
2019-03-30T10:06:46.726Z,16.27
2019-03-30T10:09:22.401Z,16.62
2019-03-30T10:11:58.868Z,17.25
2019-03-30T10:14:32.964Z,17.32
2019-03-30T10:17:07.773Z,23.38
2019-03-30T10:19:41.412Z,16.67
2019-03-30T10:22:16.569Z,16.87
2019-03-30T10:24:52.072Z,15.30
2019-03-30T10:27:26.087Z,14.98
2019-03-30T10:30:09.198Z,17.10
2019-03-30T10:32:42.929Z,18.25
2019-03-30T10:35:20.410Z,17.48
2019-03-30T10:37:54.436Z,17.65
2019-03-30T10:40:28.197Z,18.30
2019-03-30T10:43:05.311Z,18.32
2019-03-30T10:45:41.889Z,16.95
2019-03-30T10:48:19.860Z,18.98
2019-03-30T10:50:53.754Z,19.35
2019-03-30T10:53:28.248Z,18.20
2019-03-30T10:56:01.982Z,16.85
2019-03-30T10:58:37.296Z,19.23
2019-03-30T11:01:12.846Z,17.42
2019-03-30T11:03:46.560Z,18.40
2019-03-30T11:06:20.326Z,13.45
2019-03-30T11:08:56.879Z,17.95
2019-03-30T11:11:30.833Z,20.02
2019-03-30T11:14:07.749Z,19.60
2019-03-30T11:16:46.559Z,17.15
2019-03-30T11:19:20.645Z,19.80
2019-03-30T11:21:57.744Z,19.10
2019-03-30T11:24:33.217Z,20.05
2019-03-30T11:27:07.287Z,20.40
2019-03-30T11:29:41.716Z,17.20
2019-03-30T11:32:28.354Z,17.48
2019-03-30T11:35:08.443Z,21.93
2019-03-30T11:37:43.025Z,22.52
2019-03-30T11:40:21.186Z,21.73
2019-03-30T11:42:59.203Z,20.27
2019-03-30T11:45:35.905Z,18.45
2019-03-30T11:48:11.267Z,19.62
2019-03-30T11:50:44.949Z,22.50
2019-03-30T11:53:18.881Z,21.00
2019-03-30T11:55:52.870Z,21.42
2019-03-30T11:58:26.575Z,15.80
2019-03-30T12:01:00.902Z,21.82
2019-03-30T12:03:34.740Z,21.40
2019-03-30T12:06:10.588Z,19.80
2019-03-30T12:08:45.711Z,22.20
2019-03-30T12:11:20.016Z,16.12
2019-03-30T12:13:54.018Z,19.52
2019-03-30T12:16:28.591Z,20.80
2019-03-30T12:19:02.672Z,16.70
2019-03-30T12:21:36.523Z,17.92
2019-03-30T12:24:10.276Z,19.02
2019-03-30T12:26:44.055Z,18.98
2019-03-30T12:29:17.909Z,18.82
2019-03-30T12:31:51.615Z,23.85
2019-03-30T12:34:25.341Z,20.82
2019-03-30T12:36:59.009Z,20.17
2019-03-30T12:39:32.813Z,21.12
2019-03-30T12:42:06.490Z,18.80
2019-03-30T12:44:40.257Z,21.37
2019-03-30T12:47:14.560Z,21.27
2019-03-30T12:49:48.236Z,23.80
2019-03-30T12:52:22.046Z,15.63
2019-03-30T12:54:55.643Z,18.57
2019-03-30T12:57:29.393Z,20.60
2019-03-30T13:00:02.995Z,20.30
2019-03-30T13:02:36.754Z,20.70
2019-03-30T13:05:10.538Z,20.82
2019-03-30T13:07:44.405Z,21.97
2019-03-30T13:10:19.539Z,20.37
2019-03-30T13:12:53.297Z,18.67
2019-03-30T13:15:26.947Z,21.27
2019-03-30T13:18:00.601Z,21.68
2019-03-30T13:20:34.397Z,18.67
2019-03-30T13:23:08.049Z,19.07
2019-03-30T13:25:41.733Z,23.18
2019-03-30T13:28:15.687Z,18.92
2019-03-30T13:30:49.325Z,22.02
2019-03-30T13:33:23.023Z,21.85
2019-03-30T13:35:56.930Z,22.98
2019-03-30T13:38:30.767Z,20.52
2019-03-30T13:41:04.710Z,19.37
2019-03-30T13:43:38.353Z,20.43
2019-03-30T13:46:12.115Z,20.80
2019-03-30T13:48:45.914Z,19.60
2019-03-30T13:51:19.543Z,17.77
2019-03-30T13:53:53.252Z,20.35
2019-03-30T13:56:26.982Z,22.35
2019-03-30T13:59:00.818Z,19.37
2019-03-30T14:01:34.562Z,20.27
2019-03-30T14:04:08.199Z,21.77
2019-03-30T14:06:41.977Z,20.40
2019-03-30T14:09:17.351Z,17.27
2019-03-30T14:11:51.135Z,17.27
2019-03-30T14:14:24.750Z,15.10
2019-03-30T14:16:58.658Z,16.93
2019-03-30T14:19:32.348Z,15.45
2019-03-30T14:22:06.044Z,17.48
2019-03-30T14:24:46.644Z,18.70
2019-03-30T14:27:20.266Z,16.65
2019-03-30T14:29:54.497Z,13.22
2019-03-30T14:32:28.247Z,14.50
2019-03-30T14:35:01.895Z,16.82
2019-03-30T14:37:35.524Z,15.20
2019-03-30T14:40:10.707Z,13.43
2019-03-30T14:42:45.509Z,14.23
2019-03-30T14:45:19.556Z,13.68
2019-03-30T14:47:53.358Z,13.98
2019-03-30T14:50:28.066Z,12.88
2019-03-30T14:53:02.018Z,14.80
2019-03-30T14:55:39.312Z,13.62
2019-03-30T14:58:11.101Z,13.05
2019-03-30T15:00:44.861Z,13.83
2019-03-30T15:03:18.539Z,12.50
2019-03-30T15:05:52.202Z,12.43
2019-03-30T15:08:25.977Z,10.13
2019-03-30T15:10:59.867Z,12.63
2019-03-30T15:13:33.552Z,11.97
2019-03-30T15:16:08.302Z,11.57
2019-03-30T15:18:44.422Z,10.68
2019-03-30T15:21:18.205Z,12.75
2019-03-30T15:23:51.883Z,11.33
2019-03-30T15:26:25.559Z,12.63
2019-03-30T15:28:59.287Z,10.85
2019-03-30T15:31:32.909Z,10.50
2019-03-30T15:34:06.536Z,11.48
2019-03-30T15:36:40.305Z,12.13
2019-03-30T15:39:14.023Z,11.38
2019-03-30T15:41:47.729Z,10.75
2019-03-30T15:44:21.443Z,11.78
2019-03-30T15:46:56.571Z,10.53
2019-03-30T15:49:30.208Z,9.30
2019-03-30T15:52:13.869Z,11.15
2019-03-30T15:54:39.316Z,10.80
2019-03-30T15:57:14.551Z,10.65
2019-03-30T15:59:48.435Z,11.80
2019-03-30T16:02:22.002Z,10.48
2019-03-30T16:04:55.662Z,10.43
2019-03-30T16:07:31.043Z,10.32
2019-03-30T16:10:04.729Z,10.08
2019-03-30T16:12:38.326Z,10.80
2019-03-30T16:15:12.114Z,10.78
2019-03-30T16:17:45.835Z,11.48
2019-03-30T16:20:19.619Z,10.15
2019-03-30T16:22:53.303Z,10.30
2019-03-30T16:25:29.457Z,10.00
2019-03-30T16:28:03.102Z,9.63
2019-03-30T16:30:36.848Z,8.73
2019-03-30T16:33:10.528Z,10.55
2019-03-30T16:35:44.291Z,9.70
2019-03-30T16:38:17.969Z,9.73
2019-03-30T16:40:51.613Z,10.65
2019-03-30T16:43:25.212Z,12.30
2019-03-30T16:45:59.040Z,13.18
2019-03-30T16:48:33.127Z,12.43
2019-03-30T16:51:06.878Z,13.43
2019-03-30T16:53:40.553Z,17.17
2019-03-30T16:56:14.297Z,17.85
2019-03-30T16:58:48.011Z,19.00
2019-03-30T17:01:21.776Z,21.35
2019-03-30T17:03:55.391Z,24.57
2019-03-30T17:06:30.199Z,32.13
2019-03-30T17:09:05.219Z,29.80
2019-03-30T17:11:39.218Z,29.50
2019-03-30T17:14:13.024Z,27.07
2019-03-30T17:16:49.043Z,27.45
2019-03-30T17:19:23.043Z,23.80
2019-03-30T17:21:56.737Z,23.57
2019-03-30T17:24:30.807Z,26.95
2019-03-30T17:27:04.542Z,33.23
2019-03-30T17:29:38.404Z,40.28
2019-03-30T17:32:12.200Z,37.70
2019-03-30T17:34:45.997Z,35.90
2019-03-30T17:37:19.740Z,38.17
2019-03-30T17:39:53.753Z,33.18
2019-03-30T17:42:27.456Z,30.80
2019-03-30T17:45:02.219Z,28.23
2019-03-30T17:47:37.040Z,26.23
2019-03-30T17:50:12.819Z,23.98
2019-03-30T17:52:46.528Z,22.55
2019-03-30T17:55:33.014Z,23.77
2019-03-30T17:57:55.876Z,24.80
2019-03-30T18:00:29.948Z,25.05
2019-03-30T18:03:03.898Z,26.80
2019-03-30T18:05:37.765Z,25.52
2019-03-30T18:08:12.823Z,25.25
2019-03-30T18:10:46.634Z,25.40
2019-03-30T18:13:20.390Z,26.45
2019-03-30T18:15:54.124Z,27.85
2019-03-30T18:18:27.814Z,33.65
2019-03-30T18:21:01.615Z,34.80
2019-03-30T18:23:35.373Z,36.58
2019-03-30T18:26:10.696Z,41.05
2019-03-30T18:28:44.508Z,44.70
2019-03-30T18:31:19.068Z,50.90
2019-03-30T18:33:53.157Z,47.23
2019-03-30T18:36:27.911Z,61.13
2019-03-30T18:39:09.505Z,57.83
2019-03-30T18:41:39.074Z,60.40
2019-03-30T18:44:12.781Z,63.92
2019-03-30T18:46:46.559Z,60.50
2019-03-30T18:49:20.287Z,59.03
2019-03-30T18:51:54.783Z,64.97
2019-03-30T18:54:28.606Z,64.47
2019-03-30T18:57:02.618Z,63.95
2019-03-30T18:59:36.433Z,61.37
2019-03-30T19:02:10.200Z,73.42
2019-03-30T19:04:43.981Z,81.20
2019-03-30T19:07:17.802Z,84.30
2019-03-30T19:09:57.901Z,85.20
2019-03-30T19:12:36.901Z,81.67
2019-03-30T19:15:11.603Z,63.33
2019-03-30T19:17:46.230Z,75.90
2019-03-30T19:20:21.799Z,74.32
2019-03-30T19:22:55.872Z,67.80
2019-03-30T19:25:30.997Z,59.77
2019-03-30T19:28:05.908Z,61.20
2019-03-30T19:30:42.219Z,61.53
2019-03-30T19:33:15.489Z,61.33
2019-03-30T19:35:49.441Z,57.70
2019-03-30T19:38:23.480Z,64.00
2019-03-30T19:40:57.577Z,64.37
2019-03-30T19:43:32.044Z,68.05
2019-03-30T19:46:26.740Z,61.73
2019-03-30T19:49:10.178Z,61.95
2019-03-30T19:51:54.618Z,57.48
2019-03-30T19:54:32.747Z,57.40
2019-03-30T19:57:07.146Z,56.50
2019-03-30T19:59:41.020Z,56.37
2019-03-30T20:02:15.595Z,56.75
2019-03-30T20:04:49.942Z,53.68
2019-03-30T20:07:29.945Z,46.73
2019-03-30T20:10:04.356Z,57.33
2019-03-30T20:12:38.945Z,56.05
2019-03-30T20:15:41.761Z,55.63
2019-03-30T20:18:16.511Z,52.70
2019-03-30T20:20:50.783Z,52.80
2019-03-30T20:23:27.433Z,51.92
2019-03-30T20:26:01.628Z,49.13
2019-03-30T20:28:36.275Z,51.35
2019-03-30T20:31:10.773Z,49.93
2019-03-30T20:33:46.723Z,50.33
2019-03-30T20:36:21.005Z,53.65
2019-03-30T20:38:55.124Z,52.93
2019-03-30T20:41:29.336Z,56.00
2019-03-30T20:44:03.442Z,54.65
2019-03-30T20:46:37.524Z,56.00
2019-03-30T20:49:11.584Z,55.63
2019-03-30T20:51:46.021Z,54.58
2019-03-30T20:54:20.203Z,59.63
2019-03-30T20:56:54.590Z,53.85
2019-03-30T20:59:39.263Z,53.78
2019-03-30T21:02:12.925Z,50.85
2019-03-30T21:04:51.920Z,47.03
2019-03-30T21:07:26.058Z,55.52
2019-03-30T21:10:01.535Z,63.35
2019-03-30T21:12:35.346Z,65.30
2019-03-30T21:15:09.796Z,62.58
2019-03-30T21:17:43.754Z,60.35
2019-03-30T21:20:17.677Z,63.13
2019-03-30T21:22:53.360Z,62.45
2019-03-30T21:25:27.248Z,61.25
2019-03-30T21:28:02.606Z,60.52
2019-03-30T21:30:37.304Z,63.60
2019-03-30T21:33:12.590Z,62.05
2019-03-30T21:35:46.725Z,60.85
2019-03-30T21:38:20.640Z,61.42
2019-03-30T21:40:57.016Z,63.38
2019-03-30T21:43:30.879Z,57.10
2019-03-30T21:46:04.816Z,58.15
2019-03-30T21:48:38.718Z,58.13
2019-03-30T21:51:12.395Z,58.05
2019-03-30T21:53:48.167Z,59.55
2019-03-30T21:56:22.096Z,71.10
2019-03-30T21:58:58.329Z,69.20
2019-03-30T22:01:34.154Z,78.90
2019-03-30T22:04:07.877Z,77.05
2019-03-30T22:06:41.935Z,76.82
2019-03-30T22:09:15.842Z,71.10
2019-03-30T22:11:49.852Z,73.25
2019-03-30T22:14:23.773Z,77.15
2019-03-30T22:16:57.691Z,74.32
2019-03-30T22:19:31.493Z,104.12
2019-03-30T22:22:05.177Z,83.97
2019-03-30T22:24:38.995Z,71.65
2019-03-30T22:27:12.887Z,73.78
2019-03-30T22:29:48.190Z,69.65
2019-03-30T22:32:21.958Z,64.50
2019-03-30T22:34:55.707Z,61.88
2019-03-30T22:37:29.515Z,60.85
2019-03-30T22:40:03.228Z,58.30
2019-03-30T22:42:36.900Z,56.92
2019-03-30T22:45:10.887Z,59.83
2019-03-30T22:47:44.697Z,58.80
2019-03-30T22:50:18.572Z,59.33
2019-03-30T22:52:52.259Z,59.48
2019-03-30T22:55:26.156Z,59.08
2019-03-30T22:58:00.213Z,56.35
2019-03-30T23:00:51.589Z,57.35
2019-03-30T23:03:25.728Z,57.50
2019-03-30T23:05:59.968Z,58.55
2019-03-30T23:08:33.683Z,57.80
2019-03-30T23:11:07.324Z,62.17
2019-03-30T23:13:41.053Z,63.65
2019-03-30T23:16:14.870Z,61.05
2019-03-30T23:18:48.626Z,63.02
2019-03-30T23:21:22.509Z,63.05
2019-03-30T23:23:56.752Z,65.47
2019-03-30T23:26:30.488Z,63.25
2019-03-30T23:29:04.240Z,65.67
2019-03-30T23:31:38.013Z,64.58
2019-03-30T23:34:11.793Z,68.92
2019-03-30T23:36:45.537Z,67.72
2019-03-30T23:39:19.328Z,66.87
2019-03-30T23:41:53.184Z,64.82
2019-03-30T23:44:26.943Z,63.38
2019-03-30T23:47:00.706Z,61.90
2019-03-30T23:49:34.616Z,61.80
2019-03-30T23:52:08.321Z,64.55
2019-03-30T23:54:42.015Z,63.17
2019-03-30T23:57:15.981Z,62.20
2019-03-30T23:59:49.689Z,57.70
